createdAt,value
2023-03-26T00:01:46.968Z,2.20
2023-03-26T00:04:19.651Z,1.10
2023-03-26T00:06:48.942Z,1.00
2023-03-26T00:09:18.010Z,0.80
2023-03-26T00:11:46.866Z,0.90
2023-03-26T00:14:17.936Z,1.27
2023-03-26T00:16:47.615Z,1.30
2023-03-26T00:19:16.967Z,1.10
2023-03-26T00:21:45.237Z,0.73
2023-03-26T00:24:39.505Z,1.10
2023-03-26T00:27:08.831Z,0.97
2023-03-26T00:29:39.975Z,0.83
2023-03-26T00:32:08.301Z,1.00
2023-03-26T00:34:36.586Z,0.80
2023-03-26T00:37:05.094Z,1.10
2023-03-26T00:39:35.143Z,0.93
2023-03-26T00:42:06.834Z,0.80
2023-03-26T00:44:35.414Z,1.07
2023-03-26T00:47:05.165Z,1.57
2023-03-26T00:49:33.557Z,1.50
2023-03-26T00:52:03.131Z,1.87
2023-03-26T00:54:31.617Z,1.40
2023-03-26T00:56:59.899Z,0.97
2023-03-26T00:59:30.358Z,0.87
2023-03-26T01:02:00.291Z,0.93
2023-03-26T01:04:34.777Z,1.20
2023-03-26T01:07:05.898Z,1.40
2023-03-26T01:09:37.233Z,1.10
2023-03-26T01:12:08.939Z,1.27
2023-03-26T01:14:37.245Z,0.70
2023-03-26T01:17:07.945Z,0.80
2023-03-26T01:19:45.436Z,1.17
2023-03-26T01:22:16.801Z,1.00
2023-03-26T01:24:52.868Z,1.23
2023-03-26T01:27:35.859Z,2.73
2023-03-26T01:30:14.953Z,1.13
2023-03-26T01:32:58.110Z,1.37
2023-03-26T01:35:39.071Z,1.50
2023-03-26T01:38:17.746Z,2.00
2023-03-26T01:40:50.585Z,0.83
2023-03-26T01:43:33.745Z,0.90
2023-03-26T01:46:04.802Z,0.90
2023-03-26T01:48:36.252Z,1.20
2023-03-26T01:51:05.945Z,1.67
2023-03-26T01:53:59.584Z,1.00
2023-03-26T01:56:58.710Z,1.00
2023-03-26T01:59:54.833Z,1.77
2023-03-26T02:02:29.113Z,2.17
2023-03-26T02:05:02.583Z,1.10
2023-03-26T02:08:04.262Z,1.00
2023-03-26T02:10:41.278Z,0.93
2023-03-26T02:13:11.535Z,1.70
2023-03-26T02:15:40.690Z,2.00
2023-03-26T02:18:10.958Z,1.67
2023-03-26T02:20:39.319Z,1.87
2023-03-26T02:23:08.793Z,2.00
2023-03-26T02:25:39.879Z,1.13
2023-03-26T02:28:08.103Z,2.07
2023-03-26T02:30:37.874Z,1.67
2023-03-26T02:33:06.494Z,1.50
2023-03-26T02:35:34.865Z,1.50
2023-03-26T02:38:03.191Z,1.53
2023-03-26T02:40:31.453Z,1.50
2023-03-26T02:43:00.414Z,1.60
2023-03-26T02:45:28.769Z,1.40
2023-03-26T02:48:00.996Z,1.43
2023-03-26T02:50:32.537Z,1.57
2023-03-26T02:53:00.800Z,1.63
2023-03-26T02:55:29.016Z,1.17
2023-03-26T02:57:57.552Z,1.33
2023-03-26T03:00:50.866Z,1.60
2023-03-26T03:03:24.224Z,1.60
2023-03-26T03:06:18.939Z,1.83
2023-03-26T03:08:47.710Z,1.37
2023-03-26T03:11:18.237Z,1.67
2023-03-26T03:13:47.374Z,1.93
2023-03-26T03:16:15.998Z,2.23
2023-03-26T03:18:47.547Z,2.00
2023-03-26T03:21:15.846Z,3.13
2023-03-26T03:23:44.112Z,2.20
2023-03-26T03:26:15.652Z,2.20
2023-03-26T03:28:45.172Z,2.07
2023-03-26T03:31:13.618Z,2.40
2023-03-26T03:33:42.993Z,2.57
2023-03-26T03:36:42.548Z,3.00
2023-03-26T03:39:10.849Z,2.60
2023-03-26T03:41:39.080Z,2.50
2023-03-26T03:44:07.995Z,3.97
2023-03-26T03:46:36.329Z,2.90
2023-03-26T03:49:07.432Z,2.77
2023-03-26T03:51:35.810Z,4.90
2023-03-26T03:54:05.754Z,2.70
2023-03-26T03:56:34.180Z,2.93
2023-03-26T03:59:02.576Z,3.00
2023-03-26T04:01:31.781Z,2.83
2023-03-26T04:04:00.331Z,3.80
2023-03-26T04:06:30.253Z,3.20
2023-03-26T04:08:58.581Z,3.33
2023-03-26T04:11:28.194Z,7.70
2023-03-26T04:13:56.464Z,5.43
2023-03-26T04:16:24.802Z,4.10
2023-03-26T04:18:53.165Z,3.50
2023-03-26T04:21:21.404Z,3.40
2023-03-26T04:23:49.962Z,3.30
2023-03-26T04:26:19.939Z,3.00
2023-03-26T04:28:53.345Z,3.73
2023-03-26T04:31:24.728Z,3.70
2023-03-26T04:33:55.960Z,3.73
2023-03-26T04:36:30.030Z,3.87
2023-03-26T04:39:02.431Z,4.70
2023-03-26T04:41:32.493Z,4.03
2023-03-26T04:44:02.534Z,4.50
2023-03-26T04:46:33.714Z,4.80
2023-03-26T04:49:02.768Z,5.17
2023-03-26T04:51:38.336Z,5.37
2023-03-26T04:54:08.081Z,5.10
2023-03-26T04:56:44.239Z,5.27
2023-03-26T04:59:17.478Z,5.23
2023-03-26T05:01:46.742Z,5.40
2023-03-26T05:04:15.146Z,6.20
2023-03-26T05:06:43.510Z,6.20
2023-03-26T05:09:11.805Z,6.10
2023-03-26T05:11:40.089Z,5.80
2023-03-26T05:14:08.444Z,5.93
2023-03-26T05:16:39.509Z,5.70
2023-03-26T05:19:08.642Z,6.77
2023-03-26T05:21:36.925Z,6.17
2023-03-26T05:24:06.689Z,6.30
2023-03-26T05:26:34.978Z,6.63
2023-03-26T05:29:03.628Z,6.90
2023-03-26T05:31:31.995Z,6.47
2023-03-26T05:34:01.753Z,7.13
2023-03-26T05:36:30.816Z,7.03
2023-03-26T05:38:59.359Z,7.00
2023-03-26T05:41:52.930Z,6.50
2023-03-26T05:44:21.299Z,6.57
2023-03-26T05:46:49.559Z,6.40
2023-03-26T05:49:19.144Z,6.70
2023-03-26T05:52:15.254Z,6.97
2023-03-26T05:54:43.692Z,6.43
2023-03-26T05:57:11.931Z,7.30
2023-03-26T05:59:40.235Z,6.67
2023-03-26T06:02:08.465Z,8.43
2023-03-26T06:04:41.032Z,7.20
2023-03-26T06:07:10.159Z,7.30
2023-03-26T06:09:42.052Z,7.27
2023-03-26T06:12:11.518Z,7.00
2023-03-26T06:14:39.885Z,6.67
2023-03-26T06:17:08.060Z,6.43
2023-03-26T06:19:38.080Z,8.13
2023-03-26T06:22:06.729Z,6.30
2023-03-26T06:24:35.024Z,6.53
2023-03-26T06:27:03.328Z,6.57
2023-03-26T06:30:04.096Z,5.90
2023-03-26T06:32:32.371Z,5.67
2023-03-26T06:35:01.954Z,7.00
2023-03-26T06:37:30.430Z,6.57
2023-03-26T06:39:58.655Z,6.70
2023-03-26T06:43:06.401Z,6.80
2023-03-26T06:45:15.429Z,5.13
2023-03-26T06:48:33.262Z,13.73
2023-03-26T06:51:02.873Z,5.97
2023-03-26T06:53:31.573Z,6.37
2023-03-26T06:55:59.794Z,6.27
2023-03-26T06:58:28.251Z,5.83
2023-03-26T07:00:57.578Z,6.20
2023-03-26T07:03:25.945Z,6.37
2023-03-26T07:05:54.208Z,5.90
2023-03-26T07:08:25.869Z,5.70
2023-03-26T07:10:54.883Z,5.87
2023-03-26T07:13:23.204Z,5.60
2023-03-26T07:15:51.434Z,5.50
2023-03-26T07:18:19.762Z,5.77
2023-03-26T07:20:48.582Z,6.17
2023-03-26T07:23:20.147Z,6.00
2023-03-26T07:25:50.425Z,5.57
2023-03-26T07:28:26.727Z,5.10
2023-03-26T07:31:08.532Z,5.67
2023-03-26T07:33:44.574Z,5.53
2023-03-26T07:36:21.878Z,6.00
2023-03-26T07:39:07.327Z,5.20
2023-03-26T07:41:43.292Z,5.13
2023-03-26T07:44:51.602Z,5.37
2023-03-26T07:47:45.191Z,4.93
2023-03-26T07:50:18.446Z,5.20
2023-03-26T07:52:47.735Z,5.27
2023-03-26T07:55:17.612Z,5.77
2023-03-26T07:58:05.463Z,5.17
2023-03-26T08:00:38.852Z,5.00
2023-03-26T08:03:29.305Z,4.80
2023-03-26T08:06:10.961Z,4.47
2023-03-26T08:08:45.853Z,4.43
2023-03-26T08:11:25.800Z,4.23
2023-03-26T08:14:05.623Z,4.27
2023-03-26T08:16:41.919Z,3.70
2023-03-26T08:19:33.153Z,4.20
2023-03-26T08:22:11.997Z,3.57
2023-03-26T08:24:49.156Z,5.13
2023-03-26T08:27:23.109Z,3.80
2023-03-26T08:30:02.223Z,3.73
2023-03-26T08:32:30.968Z,3.97
2023-03-26T08:35:00.267Z,3.70
2023-03-26T08:37:29.345Z,3.50
2023-03-26T08:39:57.636Z,3.30
2023-03-26T08:43:07.122Z,3.43
2023-03-26T08:46:00.742Z,4.40
2023-03-26T08:49:11.065Z,3.20
2023-03-26T08:52:24.690Z,4.30
2023-03-26T08:55:22.718Z,3.17
2023-03-26T08:58:27.063Z,4.20
2023-03-26T09:01:38.815Z,3.57
2023-03-26T09:04:30.797Z,3.37
2023-03-26T09:07:37.898Z,4.07
2023-03-26T09:10:43.669Z,2.60
2023-03-26T09:13:53.064Z,4.17
2023-03-26T09:16:54.342Z,2.27
2023-03-26T09:20:11.910Z,4.33
2023-03-26T09:23:27.345Z,2.20
2023-03-26T09:26:28.310Z,2.37
2023-03-26T09:29:32.981Z,2.20
2023-03-26T09:32:39.227Z,2.40
2023-03-26T09:35:14.877Z,1.87
2023-03-26T09:37:58.338Z,1.80
2023-03-26T09:40:38.094Z,1.57
2023-03-26T09:43:41.231Z,1.63
2023-03-26T09:46:21.876Z,1.67
2023-03-26T09:49:22.890Z,2.90
2023-03-26T09:52:03.770Z,1.60
2023-03-26T09:55:14.657Z,1.40
2023-03-26T09:58:03.518Z,1.60
2023-03-26T10:00:37.476Z,2.20
2023-03-26T10:03:31.293Z,2.53
2023-03-26T10:06:34.267Z,1.63
2023-03-26T10:09:22.079Z,1.30
2023-03-26T10:12:19.880Z,1.30
2023-03-26T10:14:59.056Z,1.23
2023-03-26T10:17:43.534Z,2.03
2023-03-26T10:20:42.871Z,1.27
2023-03-26T10:23:29.300Z,1.03
2023-03-26T10:26:16.296Z,1.20
2023-03-26T10:29:00.205Z,1.10
2023-03-26T10:31:40.958Z,1.40
2023-03-26T10:34:32.277Z,1.73
2023-03-26T10:37:09.527Z,1.53
2023-03-26T10:40:07.852Z,1.43
2023-03-26T10:42:59.308Z,2.10
2023-03-26T10:45:38.101Z,1.30
2023-03-26T10:48:31.685Z,1.40
2023-03-26T10:51:36.448Z,3.80
2023-03-26T10:54:12.303Z,1.17
2023-03-26T10:56:45.398Z,0.90
2023-03-26T10:59:35.861Z,1.03
2023-03-26T11:02:29.497Z,1.20
2023-03-26T11:05:21.321Z,1.13
2023-03-26T11:07:54.141Z,1.13
2023-03-26T11:10:31.231Z,2.13
2023-03-26T11:13:15.335Z,1.43
2023-03-26T11:16:23.771Z,1.43
2023-03-26T11:18:58.018Z,1.10
2023-03-26T11:21:35.681Z,1.53
2023-03-26T11:24:33.000Z,1.20
2023-03-26T11:27:15.354Z,2.30
2023-03-26T11:29:52.867Z,1.40
2023-03-26T11:32:23.909Z,0.90
2023-03-26T11:35:00.099Z,1.10
2023-03-26T11:37:35.182Z,0.90
2023-03-26T11:40:12.544Z,0.80
2023-03-26T11:43:06.899Z,1.00
2023-03-26T11:45:38.887Z,1.77
2023-03-26T11:48:11.535Z,1.37
2023-03-26T11:50:46.520Z,1.37
2023-03-26T11:53:19.313Z,1.17
2023-03-26T11:55:52.525Z,0.97
2023-03-26T11:58:29.915Z,2.50
2023-03-26T12:00:59.129Z,1.33
2023-03-26T12:03:30.311Z,1.13
2023-03-26T12:06:03.795Z,0.93
2023-03-26T12:08:36.268Z,0.83
2023-03-26T12:11:10.798Z,0.80
2023-03-26T12:13:42.856Z,0.80
2023-03-26T12:16:14.131Z,1.07
2023-03-26T12:19:19.116Z,2.30
2023-03-26T12:21:49.635Z,0.90
2023-03-26T12:24:30.515Z,0.70
2023-03-26T12:27:02.171Z,0.80
2023-03-26T12:29:34.496Z,1.30
2023-03-26T12:32:08.659Z,0.70
2023-03-26T12:35:06.721Z,2.30
2023-03-26T12:38:08.006Z,2.37
2023-03-26T12:40:39.379Z,3.17
2023-03-26T12:44:55.183Z,1.50
2023-03-26T12:47:55.672Z,1.00
2023-03-26T12:49:20.822Z,0.90
2023-03-26T12:51:52.505Z,0.77
2023-03-26T12:54:35.752Z,1.77
2023-03-26T12:57:24.803Z,1.63
2023-03-26T13:00:12.543Z,1.10
2023-03-26T13:03:05.719Z,3.10
2023-03-26T13:06:23.453Z,2.93
2023-03-26T13:09:23.833Z,3.40
2023-03-26T13:12:03.901Z,1.50
2023-03-26T13:15:10.650Z,1.10
2023-03-26T13:17:45.975Z,0.73
2023-03-26T13:20:21.548Z,1.10
2023-03-26T13:22:57.358Z,1.13
2023-03-26T13:25:49.318Z,1.13
2023-03-26T13:28:28.062Z,1.20
2023-03-26T13:31:05.210Z,2.77
2023-03-26T13:34:05.194Z,1.83
2023-03-26T13:36:58.108Z,2.70
2023-03-26T13:40:17.351Z,1.40
2023-03-26T13:43:21.272Z,1.60
2023-03-26T13:45:57.123Z,0.80
2023-03-26T13:48:29.526Z,1.53
2023-03-26T13:51:19.579Z,2.13
2023-03-26T13:53:53.578Z,1.73
2023-03-26T13:56:43.488Z,0.80
2023-03-26T13:59:18.026Z,0.70
2023-03-26T14:01:53.482Z,0.77
2023-03-26T14:04:26.869Z,0.70
2023-03-26T14:07:02.575Z,0.90
2023-03-26T14:09:34.132Z,0.70
2023-03-26T14:12:23.121Z,0.90
2023-03-26T14:14:56.484Z,1.23
2023-03-26T14:17:29.525Z,2.40
2023-03-26T14:20:44.711Z,2.10
2023-03-26T14:23:42.262Z,0.97
2023-03-26T14:26:20.845Z,1.50
2023-03-26T14:29:19.799Z,0.80
2023-03-26T14:31:58.201Z,2.13
2023-03-26T14:34:43.209Z,1.00
2023-03-26T14:37:28.802Z,1.87
2023-03-26T14:40:30.056Z,1.00
2023-03-26T14:43:20.720Z,0.83
2023-03-26T14:46:08.634Z,0.93
2023-03-26T14:49:25.563Z,0.70
2023-03-26T14:52:02.545Z,0.80
2023-03-26T14:54:34.584Z,2.30
2023-03-26T14:57:53.568Z,2.47
2023-03-26T15:00:48.493Z,0.80
2023-03-26T15:03:55.092Z,2.50
2023-03-26T15:07:08.032Z,1.03
2023-03-26T15:10:06.135Z,1.20
2023-03-26T15:12:49.727Z,2.27
2023-03-26T15:15:45.289Z,1.80
2023-03-26T15:19:02.075Z,2.27
2023-03-26T15:22:16.925Z,1.83
2023-03-26T15:25:17.770Z,1.10
2023-03-26T15:28:22.943Z,1.20
2023-03-26T15:31:14.114Z,1.50
2023-03-26T15:34:33.770Z,0.90
2023-03-26T15:37:46.512Z,0.90
2023-03-26T15:40:43.936Z,1.00
2023-03-26T15:43:14.256Z,2.80
2023-03-26T15:46:26.218Z,2.10
2023-03-26T15:49:00.811Z,2.60
2023-03-26T15:51:51.697Z,1.20
2023-03-26T15:54:27.863Z,2.17
2023-03-26T15:57:17.235Z,2.37
2023-03-26T15:59:59.272Z,7.23
2023-03-26T16:02:41.596Z,8.77
2023-03-26T16:05:33.811Z,1.20
2023-03-26T16:08:30.672Z,3.00
2023-03-26T16:11:03.187Z,1.03
2023-03-26T16:13:38.880Z,1.20
2023-03-26T16:16:46.422Z,3.60
2023-03-26T16:19:48.961Z,2.33
2023-03-26T16:22:42.963Z,1.50
2023-03-26T16:25:27.466Z,1.20
2023-03-26T16:28:22.590Z,1.83
2023-03-26T16:31:36.619Z,2.70
2023-03-26T16:34:28.879Z,2.37
2023-03-26T16:37:37.783Z,2.00
2023-03-26T16:40:29.065Z,1.70
2023-03-26T16:43:21.876Z,2.23
2023-03-26T16:45:56.432Z,2.13
2023-03-26T16:48:33.773Z,1.50
2023-03-26T16:51:11.363Z,1.67
2023-03-26T16:53:48.697Z,2.40
2023-03-26T16:56:28.043Z,3.10
2023-03-26T16:59:00.551Z,30.70
2023-03-26T17:01:41.514Z,33.23
2023-03-26T17:04:17.148Z,30.63
2023-03-26T17:07:01.856Z,26.67
2023-03-26T17:09:41.490Z,32.43
2023-03-26T17:12:19.199Z,47.83
2023-03-26T17:18:33.400Z,23.97
2023-03-26T17:21:05.635Z,12.23
2023-03-26T17:23:50.635Z,9.63
2023-03-26T17:26:25.468Z,10.13
2023-03-26T17:29:07.473Z,7.93
2023-03-26T17:32:02.116Z,13.10
2023-03-26T17:34:46.553Z,9.57
2023-03-26T17:37:48.019Z,10.70
2023-03-26T17:40:54.430Z,9.80
2023-03-26T17:43:46.859Z,7.80
2023-03-26T17:46:33.651Z,6.40
2023-03-26T17:49:08.077Z,8.77
2023-03-26T17:51:49.452Z,8.43
2023-03-26T17:54:30.527Z,6.57
2023-03-26T17:57:04.073Z,8.57
2023-03-26T17:59:35.072Z,5.00
2023-03-26T18:02:07.082Z,4.63
2023-03-26T18:04:37.843Z,5.03
2023-03-26T18:07:45.199Z,6.10
2023-03-26T18:10:35.181Z,5.27
2023-03-26T18:13:28.950Z,4.20
2023-03-26T18:16:40.082Z,5.67
2023-03-26T18:19:18.419Z,4.43
2023-03-26T18:21:50.449Z,3.97
2023-03-26T18:24:21.903Z,3.23
2023-03-26T18:26:54.778Z,3.67
2023-03-26T18:29:35.349Z,4.63
2023-03-26T18:32:22.154Z,5.07
2023-03-26T18:34:54.436Z,4.70
2023-03-26T18:37:26.002Z,9.17
2023-03-26T18:40:02.375Z,22.67
2023-03-26T18:42:38.756Z,28.83
2023-03-26T18:45:10.737Z,9.80
2023-03-26T18:47:41.622Z,3.57
2023-03-26T18:50:17.841Z,2.53
2023-03-26T18:52:46.905Z,3.93
2023-03-26T18:55:16.157Z,4.30
2023-03-26T18:57:45.024Z,2.83
2023-03-26T19:00:20.805Z,2.27
2023-03-26T19:02:52.619Z,3.30
2023-03-26T19:05:21.266Z,2.87
2023-03-26T19:07:50.538Z,4.53
2023-03-26T19:10:22.218Z,2.07
2023-03-26T19:12:57.110Z,1.90
2023-03-26T19:15:26.788Z,2.00
2023-03-26T19:18:03.781Z,2.37
2023-03-26T19:20:40.557Z,2.43
2023-03-26T19:23:12.326Z,2.73
2023-03-26T19:25:43.196Z,3.83
2023-03-26T19:28:19.598Z,5.53
2023-03-26T19:30:48.171Z,2.33
2023-03-26T19:33:43.421Z,3.13
2023-03-26T19:36:21.188Z,2.37
2023-03-26T19:38:52.348Z,3.30
2023-03-26T19:41:24.177Z,1.87
2023-03-26T19:43:55.745Z,4.03
2023-03-26T19:46:25.118Z,3.23
2023-03-26T19:48:56.430Z,3.47
2023-03-26T19:51:31.763Z,3.70
2023-03-26T19:54:03.126Z,7.00
2023-03-26T19:56:31.864Z,4.37
2023-03-26T19:59:00.383Z,7.30
2023-03-26T20:01:31.897Z,3.70
2023-03-26T20:04:06.289Z,5.63
2023-03-26T20:06:43.172Z,4.80
2023-03-26T20:09:12.602Z,3.27
2023-03-26T20:11:41.293Z,11.37
2023-03-26T20:14:14.601Z,7.07
2023-03-26T20:19:32.872Z,7.03
2023-03-26T20:22:01.296Z,4.07
2023-03-26T20:24:30.092Z,2.67
2023-03-26T20:26:58.371Z,2.30
2023-03-26T20:29:28.305Z,2.07
2023-03-26T20:31:57.848Z,3.03
2023-03-26T20:34:26.162Z,2.77
2023-03-26T20:37:21.514Z,2.63
2023-03-26T20:39:50.070Z,2.87
2023-03-26T20:42:18.376Z,2.30
2023-03-26T20:44:47.373Z,2.80
2023-03-26T20:47:15.771Z,3.90
2023-03-26T20:49:44.129Z,1.73
2023-03-26T20:52:15.515Z,3.43
2023-03-26T20:54:45.261Z,3.90
2023-03-26T20:57:13.601Z,2.13
2023-03-26T20:59:42.006Z,2.43
2023-03-26T21:02:12.890Z,3.10
2023-03-26T21:04:41.580Z,4.27
2023-03-26T21:07:17.473Z,1.80
2023-03-26T21:09:48.945Z,2.80
2023-03-26T21:12:22.896Z,1.70
2023-03-26T21:14:51.718Z,2.07
2023-03-26T21:17:24.893Z,2.13
2023-03-26T21:19:54.748Z,2.20
2023-03-26T21:22:32.548Z,2.57
2023-03-26T21:25:17.135Z,2.30
2023-03-26T21:27:56.223Z,1.57
2023-03-26T21:30:24.956Z,2.47
2023-03-26T21:32:53.373Z,2.97
2023-03-26T21:35:22.397Z,1.90
2023-03-26T21:37:51.142Z,2.67
2023-03-26T21:40:21.148Z,2.30
2023-03-26T21:42:52.101Z,2.20
2023-03-26T21:45:21.902Z,3.00
2023-03-26T21:47:51.402Z,2.10
2023-03-26T21:50:21.955Z,2.87
2023-03-26T21:52:51.220Z,2.63
2023-03-26T21:55:22.713Z,5.33
2023-03-26T21:58:12.492Z,4.20
2023-03-26T22:00:48.293Z,2.50
2023-03-26T22:03:24.903Z,2.83
2023-03-26T22:06:00.687Z,2.07
2023-03-26T22:08:32.018Z,2.43
2023-03-26T22:11:07.213Z,2.40
2023-03-26T22:13:39.033Z,3.47
2023-03-26T22:16:09.451Z,2.63
2023-03-26T22:18:37.735Z,3.50
2023-03-26T22:21:07.122Z,4.40
2023-03-26T22:23:38.309Z,3.57
2023-03-26T22:26:08.404Z,2.30
2023-03-26T22:28:36.589Z,3.90
2023-03-26T22:31:08.641Z,3.87
2023-03-26T22:33:37.289Z,3.67
2023-03-26T22:36:06.228Z,3.63
2023-03-26T22:38:54.348Z,4.40
2023-03-26T22:41:24.319Z,2.70
2023-03-26T22:43:54.966Z,2.97
2023-03-26T22:46:24.203Z,4.00
2023-03-26T22:48:52.591Z,3.00
2023-03-26T22:51:20.842Z,4.47
2023-03-26T22:53:49.074Z,3.97
2023-03-26T22:56:18.886Z,4.67
2023-03-26T22:58:48.682Z,5.40
2023-03-26T23:01:19.837Z,3.90
2023-03-26T23:03:48.477Z,4.37
2023-03-26T23:06:17.176Z,3.83
2023-03-26T23:08:45.391Z,6.60
2023-03-26T23:11:16.210Z,4.00
2023-03-26T23:13:45.579Z,4.67
2023-03-26T23:16:16.793Z,4.70
2023-03-26T23:18:51.133Z,6.03
2023-03-26T23:21:20.891Z,4.37
2023-03-26T23:23:50.397Z,4.70
2023-03-26T23:26:18.715Z,5.33
2023-03-26T23:28:47.073Z,6.63
2023-03-26T23:31:16.852Z,5.60
2023-03-26T23:33:46.835Z,6.93
2023-03-26T23:36:18.424Z,5.77
2023-03-26T23:38:49.142Z,7.57
2023-03-26T23:41:18.790Z,9.10
2023-03-26T23:43:53.355Z,6.60
2023-03-26T23:46:30.206Z,7.17
2023-03-26T23:48:59.818Z,6.87
2023-03-26T23:51:30.193Z,6.03
2023-03-26T23:53:59.813Z,8.97
2023-03-26T23:56:29.852Z,9.87
2023-03-26T23:58:59.190Z,7.00
